sensor_id;sensor_type;location;lat;lon;timestamp;pressure;altitude;pressure_sealevel;temperature;humidity
12219;BME280;6172;42.646;23.344;2023-05-09T00:01:06;94889.84;;;11.70;100.00
12219;BME280;6172;42.646;23.344;2023-05-09T00:03:34;94889.25;;;11.59;100.00
12219;BME280;6172;42.646;23.344;2023-05-09T00:06:01;94882.72;;;11.53;100.00
12219;BME280;6172;42.646;23.344;2023-05-09T00:08:28;94886.94;;;11.58;100.00
12219;BME280;6172;42.646;23.344;2023-05-09T00:10:55;94873.50;;;11.44;100.00
12219;BME280;6172;42.646;23.344;2023-05-09T00:13:22;94882.06;;;11.69;100.00
12219;BME280;6172;42.646;23.344;2023-05-09T00:15:49;94872.88;;;11.59;100.00
12219;BME280;6172;42.646;23.344;2023-05-09T00:18:18;94872.50;;;11.57;100.00
12219;BME280;6172;42.646;23.344;2023-05-09T00:20:46;94884.53;;;11.60;100.00
12219;BME280;6172;42.646;23.344;2023-05-09T00:23:13;94873.34;;;11.54;100.00
12219;BME280;6172;42.646;23.344;2023-05-09T00:25:40;94877.13;;;11.60;100.00
12219;BME280;6172;42.646;23.344;2023-05-09T00:28:07;94872.09;;;11.59;100.00
12219;BME280;6172;42.646;23.344;2023-05-09T00:30:34;94876.44;;;11.56;100.00
12219;BME280;6172;42.646;23.344;2023-05-09T00:33:01;94874.34;;;11.64;100.00
12219;BME280;6172;42.646;23.344;2023-05-09T00:35:28;94872.78;;;11.63;100.00
12219;BME280;6172;42.646;23.344;2023-05-09T00:37:57;94871.84;;;11.73;100.00
12219;BME280;6172;42.646;23.344;2023-05-09T00:40:24;94874.41;;;11.60;100.00
12219;BME280;6172;42.646;23.344;2023-05-09T00:42:51;94873.56;;;11.63;100.00
12219;BME280;6172;42.646;23.344;2023-05-09T00:45:20;94872.69;;;11.70;100.00
12219;BME280;6172;42.646;23.344;2023-05-09T00:47:47;94868.13;;;11.63;100.00
12219;BME280;6172;42.646;23.344;2023-05-09T00:50:13;94872.50;;;11.57;100.00
12219;BME280;6172;42.646;23.344;2023-05-09T00:52:40;94877.78;;;11.45;100.00
12219;BME280;6172;42.646;23.344;2023-05-09T00:55:09;94873.03;;;11.49;100.00
12219;BME280;6172;42.646;23.344;2023-05-09T00:57:36;94874.75;;;11.62;100.00
12219;BME280;6172;42.646;23.344;2023-05-09T01:00:04;94880.09;;;11.46;100.00
12219;BME280;6172;42.646;23.344;2023-05-09T01:02:31;94877.06;;;11.41;100.00
12219;BME280;6172;42.646;23.344;2023-05-09T01:04:59;94877.78;;;11.45;100.00
12219;BME280;6172;42.646;23.344;2023-05-09T01:07:32;94873.34;;;11.54;100.00
12219;BME280;6172;42.646;23.344;2023-05-09T01:10:06;94877.31;;;11.50;100.00
12219;BME280;6172;42.646;23.344;2023-05-09T01:12:41;94875.81;;;11.68;100.00
12219;BME280;6172;42.646;23.344;2023-05-09T01:15:13;94870.72;;;11.47;100.00
12219;BME280;6172;42.646;23.344;2023-05-09T01:17:49;94877.19;;;11.57;100.00
12219;BME280;6172;42.646;23.344;2023-05-09T01:20:23;94865.38;;;11.40;100.00
12219;BME280;6172;42.646;23.344;2023-05-09T01:23:03;94873.91;;;11.42;100.00
12219;BME280;6172;42.646;23.344;2023-05-09T01:25:45;94868.72;;;11.25;100.00
12219;BME280;6172;42.646;23.344;2023-05-09T01:28:32;94873.16;;;11.42;100.00
12219;BME280;6172;42.646;23.344;2023-05-09T01:31:02;94865.00;;;11.38;100.00
12219;BME280;6172;42.646;23.344;2023-05-09T01:33:32;94868.81;;;11.44;100.00
12219;BME280;6172;42.646;23.344;2023-05-09T01:36:04;94864.66;;;11.10;100.00
12219;BME280;6172;42.646;23.344;2023-05-09T01:38:35;94863.00;;;11.16;100.00
12219;BME280;6172;42.646;23.344;2023-05-09T01:41:03;94875.25;;;11.04;100.00
12219;BME280;6172;42.646;23.344;2023-05-09T01:43:32;94869.84;;;11.27;100.00
12219;BME280;6172;42.646;23.344;2023-05-09T01:46:04;94864.59;;;11.40;100.00
12219;BME280;6172;42.646;23.344;2023-05-09T01:48:30;94870.84;;;11.40;100.00
12219;BME280;6172;42.646;23.344;2023-05-09T01:50:59;94868.56;;;11.35;100.00
12219;BME280;6172;42.646;23.344;2023-05-09T01:53:28;94874.97;;;11.48;100.00
12219;BME280;6172;42.646;23.344;2023-05-09T01:55:57;94870.47;;;11.61;100.00
12219;BME280;6172;42.646;23.344;2023-05-09T01:58:26;94868.41;;;11.69;100.00
12219;BME280;6172;42.646;23.344;2023-05-09T02:00:53;94876.31;;;11.63;100.00
12219;BME280;6172;42.646;23.344;2023-05-09T02:03:21;94865.22;;;11.51;100.00
12219;BME280;6172;42.646;23.344;2023-05-09T02:05:49;94863.94;;;11.32;100.00
12219;BME280;6172;42.646;23.344;2023-05-09T02:08:18;94871.59;;;11.41;100.00
12219;BME280;6172;42.646;23.344;2023-05-09T02:10:46;94870.69;;;11.51;100.00
12219;BME280;6172;42.646;23.344;2023-05-09T02:13:14;94872.13;;;11.55;100.00
12219;BME280;6172;42.646;23.344;2023-05-09T02:15:41;94876.22;;;11.44;100.00
12219;BME280;6172;42.646;23.344;2023-05-09T02:18:08;94867.84;;;11.31;100.00
12219;BME280;6172;42.646;23.344;2023-05-09T02:20:36;94862.22;;;11.15;100.00
12219;BME280;6172;42.646;23.344;2023-05-09T02:23:03;94867.22;;;11.20;100.00
12219;BME280;6172;42.646;23.344;2023-05-09T02:25:31;94861.56;;;11.34;100.00
12219;BME280;6172;42.646;23.344;2023-05-09T02:27:59;94867.22;;;11.20;100.00
12219;BME280;6172;42.646;23.344;2023-05-09T02:30:28;94866.41;;;11.23;100.00
12219;BME280;6172;42.646;23.344;2023-05-09T02:33:01;94872.78;;;11.13;100.00
12219;BME280;6172;42.646;23.344;2023-05-09T02:35:28;94871.00;;;11.03;100.00
12219;BME280;6172;42.646;23.344;2023-05-09T02:37:57;94868.72;;;10.98;100.00
12219;BME280;6172;42.646;23.344;2023-05-09T02:40:26;94862.41;;;11.05;100.00
12219;BME280;6172;42.646;23.344;2023-05-09T02:42:53;94870.06;;;11.13;100.00
12219;BME280;6172;42.646;23.344;2023-05-09T02:45:20;94867.78;;;11.08;100.00
12219;BME280;6172;42.646;23.344;2023-05-09T02:47:47;94876.88;;;10.98;100.00
12219;BME280;6172;42.646;23.344;2023-05-09T02:50:14;94872.84;;;10.83;100.00
12219;BME280;6172;42.646;23.344;2023-05-09T02:52:41;94872.75;;;10.60;100.00
12219;BME280;6172;42.646;23.344;2023-05-09T02:55:09;94879.84;;;10.54;100.00
12219;BME280;6172;42.646;23.344;2023-05-09T02:57:36;94888.19;;;10.70;100.00
12219;BME280;6172;42.646;23.344;2023-05-09T03:00:04;94890.34;;;10.82;100.00
12219;BME280;6172;42.646;23.344;2023-05-09T03:02:33;94879.81;;;10.84;100.00
12219;BME280;6172;42.646;23.344;2023-05-09T03:05:00;94886.69;;;10.96;100.00
12219;BME280;6172;42.646;23.344;2023-05-09T03:07:27;94882.41;;;10.95;100.00
12219;BME280;6172;42.646;23.344;2023-05-09T03:09:54;94890.91;;;11.00;100.00
12219;BME280;6172;42.646;23.344;2023-05-09T03:12:22;94886.59;;;10.99;100.00
12219;BME280;6172;42.646;23.344;2023-05-09T03:14:49;94890.63;;;10.91;100.00
12219;BME280;6172;42.646;23.344;2023-05-09T03:17:16;94885.06;;;10.98;100.00
12219;BME280;6172;42.646;23.344;2023-05-09T03:19:45;94892.00;;;10.76;100.00
12219;BME280;6172;42.646;23.344;2023-05-09T03:22:12;94906.47;;;10.73;100.00
12219;BME280;6172;42.646;23.344;2023-05-09T03:24:39;94908.09;;;10.67;100.00
12219;BME280;6172;42.646;23.344;2023-05-09T03:27:06;94911.66;;;10.61;100.00
12219;BME280;6172;42.646;23.344;2023-05-09T03:29:34;94922.34;;;10.48;100.00
12219;BME280;6172;42.646;23.344;2023-05-09T03:32:01;94933.22;;;10.48;100.00
12219;BME280;6172;42.646;23.344;2023-05-09T03:34:28;94935.16;;;10.51;100.00
12219;BME280;6172;42.646;23.344;2023-05-09T03:36:55;94935.19;;;10.48;100.00
12219;BME280;6172;42.646;23.344;2023-05-09T03:39:21;94935.66;;;10.39;100.00
12219;BME280;6172;42.646;23.344;2023-05-09T03:41:48;94934.34;;;10.54;100.00
12219;BME280;6172;42.646;23.344;2023-05-09T03:44:15;94938.31;;;10.46;100.00
12219;BME280;6172;42.646;23.344;2023-05-09T03:46:43;94946.69;;;10.62;100.00
12219;BME280;6172;42.646;23.344;2023-05-09T03:49:10;94949.19;;;10.50;100.00
12219;BME280;6172;42.646;23.344;2023-05-09T03:51:37;94944.34;;;10.64;100.00
12219;BME280;6172;42.646;23.344;2023-05-09T03:54:04;94946.81;;;10.52;100.00
12219;BME280;6172;42.646;23.344;2023-05-09T03:56:31;94935.19;;;10.48;100.00
12219;BME280;6172;42.646;23.344;2023-05-09T03:58:58;94957.47;;;10.39;100.00
12219;BME280;6172;42.646;23.344;2023-05-09T04:01:25;94954.66;;;10.46;100.00
12219;BME280;6172;42.646;23.344;2023-05-09T04:03:54;94953.75;;;10.56;100.00
12219;BME280;6172;42.646;23.344;2023-05-09T04:06:22;94952.31;;;10.48;100.00
12219;BME280;6172;42.646;23.344;2023-05-09T04:08:49;94956.13;;;10.54;100.00
12219;BME280;6172;42.646;23.344;2023-05-09T04:11:15;94940.13;;;10.56;100.00
12219;BME280;6172;42.646;23.344;2023-05-09T04:13:42;94950.47;;;10.72;100.00
12219;BME280;6172;42.646;23.344;2023-05-09T04:16:09;94942.88;;;10.86;100.00
12219;BME280;6172;42.646;23.344;2023-05-09T04:18:36;94950.22;;;10.93;100.00
12219;BME280;6172;42.646;23.344;2023-05-09T04:21:05;94951.72;;;10.97;100.00
12219;BME280;6172;42.646;23.344;2023-05-09T04:23:32;94952.25;;;11.15;100.00
12219;BME280;6172;42.646;23.344;2023-05-09T04:25:59;94948.28;;;11.20;100.00
12219;BME280;6172;42.646;23.344;2023-05-09T04:28:26;94939.38;;;11.16;100.00
12219;BME280;6172;42.646;23.344;2023-05-09T04:30:52;94945.28;;;10.81;100.00
12219;BME280;6172;42.646;23.344;2023-05-09T04:33:21;94948.00;;;10.84;100.00
12219;BME280;6172;42.646;23.344;2023-05-09T04:35:48;94943.31;;;10.85;100.00
12219;BME280;6172;42.646;23.344;2023-05-09T04:38:17;94944.97;;;11.05;100.00
12219;BME280;6172;42.646;23.344;2023-05-09T04:40:44;94951.75;;;10.94;100.00
12219;BME280;6172;42.646;23.344;2023-05-09T04:43:11;94950.22;;;10.93;100.00
12219;BME280;6172;42.646;23.344;2023-05-09T04:45:38;94947.69;;;11.05;100.00
12219;BME280;6172;42.646;23.344;2023-05-09T04:48:05;94945.06;;;10.98;100.00
12219;BME280;6172;42.646;23.344;2023-05-09T04:50:32;94947.56;;;11.16;100.00
12219;BME280;6172;42.646;23.344;2023-05-09T04:52:58;94950.53;;;11.55;100.00
12219;BME280;6172;42.646;23.344;2023-05-09T04:55:27;94945.88;;;11.78;100.00
12219;BME280;6172;42.646;23.344;2023-05-09T04:57:53;94938.81;;;11.81;100.00
12219;BME280;6172;42.646;23.344;2023-05-09T05:00:20;94939.97;;;11.57;100.00
12219;BME280;6172;42.646;23.344;2023-05-09T05:02:47;94939.09;;;11.63;100.00
12219;BME280;6172;42.646;23.344;2023-05-09T05:05:14;94943.00;;;11.62;100.00
12219;BME280;6172;42.646;23.344;2023-05-09T05:07:41;94940.78;;;11.80;100.00
12219;BME280;6172;42.646;23.344;2023-05-09T05:10:08;94933.78;;;12.02;100.00
12219;BME280;6172;42.646;23.344;2023-05-09T05:12:37;94923.88;;;12.08;100.00
12219;BME280;6172;42.646;23.344;2023-05-09T05:15:04;94928.50;;;12.34;100.00
12219;BME280;6172;42.646;23.344;2023-05-09T05:17:31;94935.84;;;11.95;100.00
12219;BME280;6172;42.646;23.344;2023-05-09T05:19:58;94939.69;;;11.74;100.00
12219;BME280;6172;42.646;23.344;2023-05-09T05:22:28;94930.72;;;11.21;100.00
12219;BME280;6172;42.646;23.344;2023-05-09T05:24:55;94929.91;;;10.97;100.00
12219;BME280;6172;42.646;23.344;2023-05-09T05:27:22;94938.84;;;11.28;100.00
12219;BME280;6172;42.646;23.344;2023-05-09T05:29:50;94933.88;;;11.49;100.00
12219;BME280;6172;42.646;23.344;2023-05-09T05:32:17;94937.53;;;11.62;100.00
12219;BME280;6172;42.646;23.344;2023-05-09T05:34:44;94939.78;;;11.94;100.00
12219;BME280;6172;42.646;23.344;2023-05-09T05:37:11;94945.00;;;11.85;100.00
12219;BME280;6172;42.646;23.344;2023-05-09T05:39:37;94945.72;;;11.62;100.00
12219;BME280;6172;42.646;23.344;2023-05-09T05:42:04;94949.91;;;11.70;100.00
12219;BME280;6172;42.646;23.344;2023-05-09T05:44:31;94947.19;;;11.44;100.00
12219;BME280;6172;42.646;23.344;2023-05-09T05:46:59;94955.09;;;11.61;100.00
12219;BME280;6172;42.646;23.344;2023-05-09T05:49:26;94948.78;;;11.41;100.00
12219;BME280;6172;42.646;23.344;2023-05-09T05:51:53;94954.28;;;11.64;100.00
12219;BME280;6172;42.646;23.344;2023-05-09T05:54:20;94948.41;;;11.66;100.00
12219;BME280;6172;42.646;23.344;2023-05-09T05:56:47;94953.41;;;11.44;100.00
12219;BME280;6172;42.646;23.344;2023-05-09T05:59:13;94950.66;;;11.48;100.00
12219;BME280;6172;42.646;23.344;2023-05-09T06:01:40;94959.38;;;11.62;100.00
12219;BME280;6172;42.646;23.344;2023-05-09T06:04:08;94953.94;;;11.36;100.00
12219;BME280;6172;42.646;23.344;2023-05-09T06:06:35;94945.66;;;11.13;100.00
12219;BME280;6172;42.646;23.344;2023-05-09T06:09:02;94951.72;;;11.24;100.00
12219;BME280;6172;42.646;23.344;2023-05-09T06:11:29;94954.13;;;11.48;100.00
12219;BME280;6172;42.646;23.344;2023-05-09T06:13:56;94957.28;;;11.47;100.00
12219;BME280;6172;42.646;23.344;2023-05-09T06:16:23;94959.81;;;11.61;100.00
12219;BME280;6172;42.646;23.344;2023-05-09T06:18:50;94946.22;;;11.80;100.00
12219;BME280;6172;42.646;23.344;2023-05-09T06:21:18;94939.22;;;12.02;100.00
12219;BME280;6172;42.646;23.344;2023-05-09T06:23:45;94945.59;;;12.38;100.00
12219;BME280;6172;42.646;23.344;2023-05-09T06:26:12;94942.22;;;12.54;100.00
12219;BME280;6172;42.646;23.344;2023-05-09T06:28:39;94941.16;;;12.25;100.00
12219;BME280;6172;42.646;23.344;2023-05-09T06:31:06;94929.72;;;12.10;100.00
12219;BME280;6172;42.646;23.344;2023-05-09T06:33:33;94948.25;;;12.22;100.00
12219;BME280;6172;42.646;23.344;2023-05-09T06:36:00;94942.19;;;12.11;100.00
12219;BME280;6172;42.646;23.344;2023-05-09T06:38:28;94951.09;;;11.69;100.00
12219;BME280;6172;42.646;23.344;2023-05-09T06:40:54;94937.09;;;11.41;100.00
12219;BME280;6172;42.646;23.344;2023-05-09T06:43:22;94946.75;;;11.72;100.00
12219;BME280;6172;42.646;23.344;2023-05-09T06:45:48;94947.84;;;11.51;100.00
12219;BME280;6172;42.646;23.344;2023-05-09T06:48:15;94948.97;;;11.80;100.00
12219;BME280;6172;42.646;23.344;2023-05-09T06:50:42;94941.28;;;11.72;100.00
12219;BME280;6172;42.646;23.344;2023-05-09T06:53:09;94938.44;;;11.56;100.00
12219;BME280;6172;42.646;23.344;2023-05-09T06:55:37;94932.06;;;11.39;100.00
12219;BME280;6172;42.646;23.344;2023-05-09T06:58:04;94937.56;;;11.36;100.00
12219;BME280;6172;42.646;23.344;2023-05-09T07:00:31;94946.56;;;11.59;100.00
12219;BME280;6172;42.646;23.344;2023-05-09T07:02:57;94946.00;;;11.94;100.00
12219;BME280;6172;42.646;23.344;2023-05-09T07:05:25;94943.25;;;11.71;100.00
12219;BME280;6172;42.646;23.344;2023-05-09T07:07:52;94938.03;;;12.03;100.00
12219;BME280;6172;42.646;23.344;2023-05-09T07:10:19;94937.44;;;12.15;100.00
12219;BME280;6172;42.646;23.344;2023-05-09T07:12:48;94932.59;;;12.23;100.00
12219;BME280;6172;42.646;23.344;2023-05-09T07:15:15;94934.34;;;11.90;100.00
12219;BME280;6172;42.646;23.344;2023-05-09T07:17:42;94933.88;;;11.72;100.00
12219;BME280;6172;42.646;23.344;2023-05-09T07:20:09;94933.94;;;11.92;100.00
12219;BME280;6172;42.646;23.344;2023-05-09T07:22:36;94930.97;;;11.83;100.00
12219;BME280;6172;42.646;23.344;2023-05-09T07:25:05;94935.16;;;11.64;100.00
12219;BME280;6172;42.646;23.344;2023-05-09T07:27:32;94932.94;;;12.05;100.00
12219;BME280;6172;42.646;23.344;2023-05-09T07:30:00;94935.06;;;12.17;100.00
12219;BME280;6172;42.646;23.344;2023-05-09T07:32:27;94923.28;;;12.20;100.00
12219;BME280;6172;42.646;23.344;2023-05-09T07:34:54;94930.63;;;12.04;100.00
12219;BME280;6172;42.646;23.344;2023-05-09T07:37:21;94926.22;;;11.87;100.00
12219;BME280;6172;42.646;23.344;2023-05-09T07:39:47;94935.44;;;11.73;100.00
12219;BME280;6172;42.646;23.344;2023-05-09T07:42:14;94934.09;;;11.81;100.00
12219;BME280;6172;42.646;23.344;2023-05-09T07:44:41;94942.91;;;11.69;100.00
12219;BME280;6172;42.646;23.344;2023-05-09T07:47:09;94945.81;;;11.82;100.00
12219;BME280;6172;42.646;23.344;2023-05-09T07:49:36;94941.00;;;12.12;100.00
12219;BME280;6172;42.646;23.344;2023-05-09T07:52:04;94936.34;;;12.32;100.00
12219;BME280;6172;42.646;23.344;2023-05-09T07:54:31;94929.41;;;12.28;100.00
12219;BME280;6172;42.646;23.344;2023-05-09T07:56:58;94929.66;;;12.14;100.00
12219;BME280;6172;42.646;23.344;2023-05-09T07:59:25;94941.34;;;12.14;100.00
12219;BME280;6172;42.646;23.344;2023-05-09T08:01:51;94933.25;;;12.30;100.00
12219;BME280;6172;42.646;23.344;2023-05-09T08:04:20;94929.56;;;12.40;100.00
12219;BME280;6172;42.646;23.344;2023-05-09T08:06:46;94921.22;;;12.47;100.00
12219;BME280;6172;42.646;23.344;2023-05-09T08:09:13;94933.03;;;12.21;100.00
12219;BME280;6172;42.646;23.344;2023-05-09T08:11:40;94929.06;;;12.03;100.00
12219;BME280;6172;42.646;23.344;2023-05-09T08:14:07;94935.75;;;12.21;100.00
12219;BME280;6172;42.646;23.344;2023-05-09T08:16:33;94927.53;;;12.02;100.00
12219;BME280;6172;42.646;23.344;2023-05-09T08:19:00;94935.75;;;12.21;100.00
12219;BME280;6172;42.646;23.344;2023-05-09T08:21:28;94943.16;;;12.44;100.00
12219;BME280;6172;42.646;23.344;2023-05-09T08:23:55;94936.44;;;12.48;100.00
12219;BME280;6172;42.646;23.344;2023-05-09T08:26:22;94931.19;;;12.57;100.00
12219;BME280;6172;42.646;23.344;2023-05-09T08:28:49;94938.63;;;12.77;100.00
12219;BME280;6172;42.646;23.344;2023-05-09T08:31:16;94940.75;;;12.89;100.00
12219;BME280;6172;42.646;23.344;2023-05-09T08:33:42;94925.56;;;13.04;100.00
12219;BME280;6172;42.646;23.344;2023-05-09T08:36:09;94919.09;;;12.58;100.00
12219;BME280;6172;42.646;23.344;2023-05-09T08:38:37;94927.03;;;13.08;100.00
12219;BME280;6172;42.646;23.344;2023-05-09T08:41:05;94928.19;;;12.91;100.00
12219;BME280;6172;42.646;23.344;2023-05-09T08:43:33;94929.00;;;13.08;100.00
12219;BME280;6172;42.646;23.344;2023-05-09T08:46:03;94918.94;;;12.85;100.00
12219;BME280;6172;42.646;23.344;2023-05-09T08:48:33;94925.97;;;12.43;100.00
12219;BME280;6172;42.646;23.344;2023-05-09T08:51:02;94928.03;;;12.59;100.00
12219;BME280;6172;42.646;23.344;2023-05-09T08:53:29;94916.22;;;12.65;100.00
12219;BME280;6172;42.646;23.344;2023-05-09T08:55:59;94923.50;;;12.92;100.00
12219;BME280;6172;42.646;23.344;2023-05-09T08:58:27;94915.13;;;12.99;100.00
12219;BME280;6172;42.646;23.344;2023-05-09T09:00:54;94930.66;;;12.86;100.00
12219;BME280;6172;42.646;23.344;2023-05-09T09:03:22;94922.94;;;12.61;100.00
12219;BME280;6172;42.646;23.344;2023-05-09T09:05:50;94927.75;;;12.73;100.00
12219;BME280;6172;42.646;23.344;2023-05-09T09:08:19;94910.44;;;12.80;100.00
12219;BME280;6172;42.646;23.344;2023-05-09T09:10:47;94915.06;;;12.63;100.00
12219;BME280;6172;42.646;23.344;2023-05-09T09:13:16;94925.34;;;12.95;100.00
12219;BME280;6172;42.646;23.344;2023-05-09T09:15:44;94913.94;;;13.00;100.00
12219;BME280;6172;42.646;23.344;2023-05-09T09:18:15;94922.16;;;13.00;100.00
12219;BME280;6172;42.646;23.344;2023-05-09T09:20:46;94915.47;;;13.01;100.00
12219;BME280;6172;42.646;23.344;2023-05-09T09:23:17;94921.13;;;12.74;100.00
12219;BME280;6172;42.646;23.344;2023-05-09T09:25:45;94919.88;;;12.36;100.00
12219;BME280;6172;42.646;23.344;2023-05-09T09:28:12;94934.03;;;12.54;100.00
12219;BME280;6172;42.646;23.344;2023-05-09T09:30:44;94938.06;;;12.23;100.00
12219;BME280;6172;42.646;23.344;2023-05-09T09:33:18;94919.66;;;12.27;100.00
12219;BME280;6172;42.646;23.344;2023-05-09T09:35:47;94929.19;;;12.38;100.00
12219;BME280;6172;42.646;23.344;2023-05-09T09:38:16;94932.22;;;12.01;100.00
12219;BME280;6172;42.646;23.344;2023-05-09T09:41:01;94935.69;;;11.82;100.00
12219;BME280;6172;42.646;23.344;2023-05-09T09:43:30;94934.31;;;11.94;100.00
12219;BME280;6172;42.646;23.344;2023-05-09T09:46:01;94934.59;;;11.76;100.00
12219;BME280;6172;42.646;23.344;2023-05-09T09:48:30;94932.63;;;11.77;100.00
12219;BME280;6172;42.646;23.344;2023-05-09T09:51:02;94938.41;;;11.82;100.00
12219;BME280;6172;42.646;23.344;2023-05-09T09:53:29;94933.81;;;11.76;100.00
12219;BME280;6172;42.646;23.344;2023-05-09T09:55:56;94931.75;;;11.83;100.00
12219;BME280;6172;42.646;23.344;2023-05-09T09:58:23;94948.25;;;12.22;100.00
12219;BME280;6172;42.646;23.344;2023-05-09T10:01:05;94938.69;;;12.11;100.00
12219;BME280;6172;42.646;23.344;2023-05-09T10:03:36;94931.88;;;11.99;100.00
12219;BME280;6172;42.646;23.344;2023-05-09T10:06:03;94933.28;;;12.07;100.00
12219;BME280;6172;42.646;23.344;2023-05-09T10:08:30;94934.78;;;12.31;100.00
12219;BME280;6172;42.646;23.344;2023-05-09T10:10:58;94932.84;;;12.51;100.00
12219;BME280;6172;42.646;23.344;2023-05-09T10:13:27;94926.03;;;12.40;100.00
12219;BME280;6172;42.646;23.344;2023-05-09T10:15:54;94927.66;;;12.37;100.00
12219;BME280;6172;42.646;23.344;2023-05-09T10:18:26;94929.06;;;12.45;100.00
12219;BME280;6172;42.646;23.344;2023-05-09T10:20:55;94923.31;;;12.40;100.00
12219;BME280;6172;42.646;23.344;2023-05-09T10:23:26;94929.47;;;12.67;100.00
12219;BME280;6172;42.646;23.344;2023-05-09T10:25:58;94933.47;;;12.62;100.00
12219;BME280;6172;42.646;23.344;2023-05-09T10:28:31;94924.63;;;12.32;100.00
12219;BME280;6172;42.646;23.344;2023-05-09T10:31:04;94922.03;;;12.44;100.00
12219;BME280;6172;42.646;23.344;2023-05-09T10:33:39;94924.16;;;12.37;100.00
12219;BME280;6172;42.646;23.344;2023-05-09T10:36:08;94932.22;;;12.01;100.00
12219;BME280;6172;42.646;23.344;2023-05-09T10:38:36;94925.34;;;11.93;100.00
12219;BME280;6172;42.646;23.344;2023-05-09T10:41:04;94930.81;;;11.93;100.00
12219;BME280;6172;42.646;23.344;2023-05-09T10:43:33;94927.81;;;11.84;100.00
12219;BME280;6172;42.646;23.344;2023-05-09T10:46:00;94933.41;;;11.77;100.00
12219;BME280;6172;42.646;23.344;2023-05-09T10:48:28;94937.91;;;11.64;100.00
12219;BME280;6172;42.646;23.344;2023-05-09T10:50:57;94942.09;;;11.72;100.00
12219;BME280;6172;42.646;23.344;2023-05-09T10:53:39;94928.72;;;11.78;100.00
12219;BME280;6172;42.646;23.344;2023-05-09T10:56:06;94939.00;;;11.93;100.00
12219;BME280;6172;42.646;23.344;2023-05-09T10:58:34;94927.78;;;11.88;100.00
12219;BME280;6172;42.646;23.344;2023-05-09T11:01:04;94933.88;;;11.95;100.00
12219;BME280;6172;42.646;23.344;2023-05-09T11:03:52;94923.44;;;11.90;100.00
12219;BME280;6172;42.646;23.344;2023-05-09T11:06:43;94924.50;;;11.96;100.00
12219;BME280;6172;42.646;23.344;2023-05-09T11:09:24;94934.09;;;11.81;100.00
12219;BME280;6172;42.646;23.344;2023-05-09T11:11:53;94926.94;;;12.14;100.00
12219;BME280;6172;42.646;23.344;2023-05-09T11:14:30;94917.31;;;12.06;100.00
12219;BME280;6172;42.646;23.344;2023-05-09T11:16:58;94918.75;;;12.14;100.00
12219;BME280;6172;42.646;23.344;2023-05-09T11:19:36;94925.13;;;12.27;100.00
12219;BME280;6172;42.646;23.344;2023-05-09T11:22:15;94925.97;;;12.43;100.00
12219;BME280;6172;42.646;23.344;2023-05-09T11:24:44;94915.78;;;12.67;100.00
12219;BME280;6172;42.646;23.344;2023-05-09T11:27:17;94925.44;;;12.71;100.00
12219;BME280;6172;42.646;23.344;2023-05-09T11:29:47;94914.50;;;12.52;100.00
12219;BME280;6172;42.646;23.344;2023-05-09T11:32:15;94917.63;;;12.50;100.00
12219;BME280;6172;42.646;23.344;2023-05-09T11:34:43;94916.47;;;12.09;100.00
12219;BME280;6172;42.646;23.344;2023-05-09T11:37:11;94925.22;;;11.77;100.00
12219;BME280;6172;42.646;23.344;2023-05-09T11:39:57;94916.97;;;12.04;100.00
12219;BME280;6172;42.646;23.344;2023-05-09T11:42:24;94918.06;;;12.29;100.00
12219;BME280;6172;42.646;23.344;2023-05-09T11:44:52;94927.09;;;12.26;100.00
12219;BME280;6172;42.646;23.344;2023-05-09T11:47:20;94920.88;;;12.03;100.00
12219;BME280;6172;42.646;23.344;2023-05-09T11:49:47;94918.25;;;11.50;100.00
12219;BME280;6172;42.646;23.344;2023-05-09T11:52:15;94921.06;;;11.69;100.00
12219;BME280;6172;42.646;23.344;2023-05-09T11:54:41;94931.50;;;11.97;100.00
12219;BME280;6172;42.646;23.344;2023-05-09T11:57:10;94924.25;;;12.10;100.00
12219;BME280;6172;42.646;23.344;2023-05-09T11:59:42;94919.63;;;12.07;100.00
12219;BME280;6172;42.646;23.344;2023-05-09T12:02:10;94924.91;;;11.95;100.00
12219;BME280;6172;42.646;23.344;2023-05-09T12:04:36;94918.09;;;11.83;100.00
12219;BME280;6172;42.646;23.344;2023-05-09T12:07:04;94927.09;;;11.57;100.00
12219;BME280;6172;42.646;23.344;2023-05-09T12:09:32;94926.72;;;11.55;100.00
12219;BME280;6172;42.646;23.344;2023-05-09T12:11:59;94919.88;;;11.93;100.00
12219;BME280;6172;42.646;23.344;2023-05-09T12:14:30;94923.78;;;11.69;100.00
12219;BME280;6172;42.646;23.344;2023-05-09T12:16:57;94924.91;;;11.49;100.00
12219;BME280;6172;42.646;23.344;2023-05-09T12:19:25;94919.69;;;11.31;100.00
12219;BME280;6172;42.646;23.344;2023-05-09T12:21:55;94918.41;;;11.39;100.00
12219;BME280;6172;42.646;23.344;2023-05-09T12:24:23;94927.59;;;11.22;100.00
12219;BME280;6172;42.646;23.344;2023-05-09T12:26:51;94926.28;;;10.77;100.00
12219;BME280;6172;42.646;23.344;2023-05-09T12:29:19;94942.34;;;10.98;100.00
12219;BME280;6172;42.646;23.344;2023-05-09T12:31:48;94923.03;;;10.86;100.00
12219;BME280;6172;42.646;23.344;2023-05-09T12:34:15;94929.81;;;10.74;100.00
12219;BME280;6172;42.646;23.344;2023-05-09T12:36:43;94934.63;;;10.93;100.00
12219;BME280;6172;42.646;23.344;2023-05-09T12:39:15;94916.88;;;10.82;100.00
12219;BME280;6172;42.646;23.344;2023-05-09T12:41:43;94914.47;;;10.54;100.00
12219;BME280;6172;42.646;23.344;2023-05-09T12:44:17;94932.09;;;10.46;100.00
12219;BME280;6172;42.646;23.344;2023-05-09T12:46:54;94936.16;;;10.30;100.00
12219;BME280;6172;42.646;23.344;2023-05-09T12:49:21;94926.75;;;10.35;100.00
12219;BME280;6172;42.646;23.344;2023-05-09T12:51:49;94930.59;;;10.41;100.00
12219;BME280;6172;42.646;23.344;2023-05-09T12:54:19;94929.09;;;10.36;100.00
12219;BME280;6172;42.646;23.344;2023-05-09T12:56:47;94918.84;;;10.10;100.00